sensor_id;sensor_type;location;lat;lon;timestamp;temperature;humidity
54788;DHT22;59598;48.112;16.280;2023-07-16T00:00:00;22.90;1.00
54788;DHT22;59598;48.112;16.280;2023-07-16T00:02:37;22.80;1.00
54788;DHT22;59598;48.112;16.280;2023-07-16T00:05:09;22.80;1.00
54788;DHT22;59598;48.112;16.280;2023-07-16T00:07:40;22.80;1.00
54788;DHT22;59598;48.112;16.280;2023-07-16T00:10:14;22.80;1.00
54788;DHT22;59598;48.112;16.280;2023-07-16T00:12:48;22.70;1.00
54788;DHT22;59598;48.112;16.280;2023-07-16T00:15:27;22.70;1.00
54788;DHT22;59598;48.112;16.280;2023-07-16T00:18:02;22.70;1.00
54788;DHT22;59598;48.112;16.280;2023-07-16T00:20:34;22.50;1.00
54788;DHT22;59598;48.112;16.280;2023-07-16T00:23:10;22.50;1.20
54788;DHT22;59598;48.112;16.280;2023-07-16T00:25:43;22.50;22.20
54788;DHT22;59598;48.112;16.280;2023-07-16T00:28:19;22.50;2.70
54788;DHT22;59598;48.112;16.280;2023-07-16T00:30:50;22.40;6.40
54788;DHT22;59598;48.112;16.280;2023-07-16T00:33:22;22.30;73.60
54788;DHT22;59598;48.112;16.280;2023-07-16T00:35:53;22.30;22.90
54788;DHT22;59598;48.112;16.280;2023-07-16T00:38:27;22.30;98.50
54788;DHT22;59598;48.112;16.280;2023-07-16T00:40:58;22.20;99.90
54788;DHT22;59598;48.112;16.280;2023-07-16T00:43:29;22.20;99.90
54788;DHT22;59598;48.112;16.280;2023-07-16T00:46:01;22.20;99.90
54788;DHT22;59598;48.112;16.280;2023-07-16T00:48:38;22.10;99.90
54788;DHT22;59598;48.112;16.280;2023-07-16T00:51:11;22.10;99.90
54788;DHT22;59598;48.112;16.280;2023-07-16T00:53:48;22.00;99.90
54788;DHT22;59598;48.112;16.280;2023-07-16T00:56:22;21.90;99.90
54788;DHT22;59598;48.112;16.280;2023-07-16T00:58:54;21.90;99.90
54788;DHT22;59598;48.112;16.280;2023-07-16T01:01:25;21.80;99.90
54788;DHT22;59598;48.112;16.280;2023-07-16T01:03:59;21.70;99.90
54788;DHT22;59598;48.112;16.280;2023-07-16T01:06:38;21.60;99.90
54788;DHT22;59598;48.112;16.280;2023-07-16T01:11:51;21.40;99.90
54788;DHT22;59598;48.112;16.280;2023-07-16T01:14:27;21.40;99.90
54788;DHT22;59598;48.112;16.280;2023-07-16T01:17:05;21.30;99.90
54788;DHT22;59598;48.112;16.280;2023-07-16T01:19:45;21.20;99.90
54788;DHT22;59598;48.112;16.280;2023-07-16T01:31:01;20.90;99.90
54788;DHT22;59598;48.112;16.280;2023-07-16T01:33:34;20.80;99.90
54788;DHT22;59598;48.112;16.280;2023-07-16T01:36:07;20.80;99.90
54788;DHT22;59598;48.112;16.280;2023-07-16T01:38:41;20.80;99.90
54788;DHT22;59598;48.112;16.280;2023-07-16T01:41:16;20.80;99.90
54788;DHT22;59598;48.112;16.280;2023-07-16T01:43:49;20.70;99.90
54788;DHT22;59598;48.112;16.280;2023-07-16T01:46:23;20.80;99.90
54788;DHT22;59598;48.112;16.280;2023-07-16T01:48:55;20.80;99.90
54788;DHT22;59598;48.112;16.280;2023-07-16T01:51:26;20.80;99.90
54788;DHT22;59598;48.112;16.280;2023-07-16T01:54:00;20.70;99.90
54788;DHT22;59598;48.112;16.280;2023-07-16T01:56:32;20.60;99.90
54788;DHT22;59598;48.112;16.280;2023-07-16T01:59:06;20.60;99.90
54788;DHT22;59598;48.112;16.280;2023-07-16T02:02:01;20.60;99.90
54788;DHT22;59598;48.112;16.280;2023-07-16T02:04:34;20.70;99.90
54788;DHT22;59598;48.112;16.280;2023-07-16T02:07:08;20.60;99.90
54788;DHT22;59598;48.112;16.280;2023-07-16T02:09:39;20.60;99.90
54788;DHT22;59598;48.112;16.280;2023-07-16T02:12:13;20.50;99.90
54788;DHT22;59598;48.112;16.280;2023-07-16T02:14:49;20.50;99.90
54788;DHT22;59598;48.112;16.280;2023-07-16T02:17:20;20.50;99.90
54788;DHT22;59598;48.112;16.280;2023-07-16T02:19:53;20.40;99.90
54788;DHT22;59598;48.112;16.280;2023-07-16T02:22:27;20.30;99.90
54788;DHT22;59598;48.112;16.280;2023-07-16T02:24:58;20.40;99.90
54788;DHT22;59598;48.112;16.280;2023-07-16T02:27:29;20.40;99.90
54788;DHT22;59598;48.112;16.280;2023-07-16T02:30:06;20.40;99.90
54788;DHT22;59598;48.112;16.280;2023-07-16T02:32:37;20.30;99.90
54788;DHT22;59598;48.112;16.280;2023-07-16T02:35:13;20.30;99.90
54788;DHT22;59598;48.112;16.280;2023-07-16T02:37:47;20.30;99.90
54788;DHT22;59598;48.112;16.280;2023-07-16T02:40:18;20.30;99.90
54788;DHT22;59598;48.112;16.280;2023-07-16T02:42:55;20.30;99.90
54788;DHT22;59598;48.112;16.280;2023-07-16T02:45:26;20.30;99.90
54788;DHT22;59598;48.112;16.280;2023-07-16T02:47:58;20.30;99.90
54788;DHT22;59598;48.112;16.280;2023-07-16T02:50:36;20.20;99.90
54788;DHT22;59598;48.112;16.280;2023-07-16T02:53:10;20.20;99.90
54788;DHT22;59598;48.112;16.280;2023-07-16T02:55:45;20.20;99.90
54788;DHT22;59598;48.112;16.280;2023-07-16T02:58:16;20.10;99.90
54788;DHT22;59598;48.112;16.280;2023-07-16T03:00:50;20.10;99.90
54788;DHT22;59598;48.112;16.280;2023-07-16T03:03:21;20.00;99.90
54788;DHT22;59598;48.112;16.280;2023-07-16T03:05:56;19.90;99.90
54788;DHT22;59598;48.112;16.280;2023-07-16T03:08:29;19.90;99.90
54788;DHT22;59598;48.112;16.280;2023-07-16T03:11:02;19.90;99.90
54788;DHT22;59598;48.112;16.280;2023-07-16T03:13:36;19.80;99.90
54788;DHT22;59598;48.112;16.280;2023-07-16T03:16:08;19.80;99.90
54788;DHT22;59598;48.112;16.280;2023-07-16T03:18:40;19.80;99.90
54788;DHT22;59598;48.112;16.280;2023-07-16T03:21:17;19.80;99.90
54788;DHT22;59598;48.112;16.280;2023-07-16T03:23:50;19.80;99.90
54788;DHT22;59598;48.112;16.280;2023-07-16T03:26:21;19.80;99.90
54788;DHT22;59598;48.112;16.280;2023-07-16T03:28:53;19.80;99.90
54788;DHT22;59598;48.112;16.280;2023-07-16T03:31:25;19.80;99.90
54788;DHT22;59598;48.112;16.280;2023-07-16T03:33:59;19.90;99.90
54788;DHT22;59598;48.112;16.280;2023-07-16T03:36:35;19.90;99.90
54788;DHT22;59598;48.112;16.280;2023-07-16T03:39:07;20.00;99.90
54788;DHT22;59598;48.112;16.280;2023-07-16T03:41:42;20.10;99.90
54788;DHT22;59598;48.112;16.280;2023-07-16T03:44:13;20.30;99.90
54788;DHT22;59598;48.112;16.280;2023-07-16T03:46:45;20.50;99.90
54788;DHT22;59598;48.112;16.280;2023-07-16T03:49:16;20.50;99.90
54788;DHT22;59598;48.112;16.280;2023-07-16T03:51:50;20.70;99.90
54788;DHT22;59598;48.112;16.280;2023-07-16T03:54:25;20.70;99.90
54788;DHT22;59598;48.112;16.280;2023-07-16T03:56:58;20.90;99.90
54788;DHT22;59598;48.112;16.280;2023-07-16T03:59:32;21.00;99.90
54788;DHT22;59598;48.112;16.280;2023-07-16T04:02:06;21.20;99.90
54788;DHT22;59598;48.112;16.280;2023-07-16T04:04:37;21.30;99.90
54788;DHT22;59598;48.112;16.280;2023-07-16T04:07:10;21.60;99.90
54788;DHT22;59598;48.112;16.280;2023-07-16T04:09:41;21.60;99.90
54788;DHT22;59598;48.112;16.280;2023-07-16T04:12:15;21.70;99.90
54788;DHT22;59598;48.112;16.280;2023-07-16T04:14:49;21.90;99.90
54788;DHT22;59598;48.112;16.280;2023-07-16T04:17:23;22.10;99.90
54788;DHT22;59598;48.112;16.280;2023-07-16T04:19:55;22.10;99.90
54788;DHT22;59598;48.112;16.280;2023-07-16T04:22:27;22.40;99.90
54788;DHT22;59598;48.112;16.280;2023-07-16T04:25:01;22.50;67.40
54788;DHT22;59598;48.112;16.280;2023-07-16T04:27:32;22.50;13.40
54788;DHT22;59598;48.112;16.280;2023-07-16T04:30:04;22.90;1.00
54788;DHT22;59598;48.112;16.280;2023-07-16T04:32:39;23.10;1.00
54788;DHT22;59598;48.112;16.280;2023-07-16T04:35:13;23.30;1.00
54788;DHT22;59598;48.112;16.280;2023-07-16T04:37:49;23.40;1.00
54788;DHT22;59598;48.112;16.280;2023-07-16T04:40:20;23.40;1.00
54788;DHT22;59598;48.112;16.280;2023-07-16T04:42:54;23.40;1.00
54788;DHT22;59598;48.112;16.280;2023-07-16T04:45:28;23.50;1.00
54788;DHT22;59598;48.112;16.280;2023-07-16T04:48:06;23.70;1.00
54788;DHT22;59598;48.112;16.280;2023-07-16T04:50:41;23.70;1.00
54788;DHT22;59598;48.112;16.280;2023-07-16T04:53:17;23.80;1.00
54788;DHT22;59598;48.112;16.280;2023-07-16T04:55:52;23.80;1.00
54788;DHT22;59598;48.112;16.280;2023-07-16T04:58:30;23.80;1.00
54788;DHT22;59598;48.112;16.280;2023-07-16T05:01:01;23.90;1.00
54788;DHT22;59598;48.112;16.280;2023-07-16T05:03:33;24.10;1.00
54788;DHT22;59598;48.112;16.280;2023-07-16T05:06:06;24.40;1.00
54788;DHT22;59598;48.112;16.280;2023-07-16T05:08:38;24.70;1.00
54788;DHT22;59598;48.112;16.280;2023-07-16T05:11:09;24.90;1.00
54788;DHT22;59598;48.112;16.280;2023-07-16T05:13:40;24.90;99.90
54788;DHT22;59598;48.112;16.280;2023-07-16T05:16:12;24.50;1.00
54788;DHT22;59598;48.112;16.280;2023-07-16T05:18:44;24.40;1.00
54788;DHT22;59598;48.112;16.280;2023-07-16T05:21:15;24.40;1.00
54788;DHT22;59598;48.112;16.280;2023-07-16T05:23:49;24.30;99.90
54788;DHT22;59598;48.112;16.280;2023-07-16T05:26:21;24.40;99.90
54788;DHT22;59598;48.112;16.280;2023-07-16T05:29:00;24.50;99.90
54788;DHT22;59598;48.112;16.280;2023-07-16T05:31:31;24.60;99.90
54788;DHT22;59598;48.112;16.280;2023-07-16T05:34:07;24.70;99.90
54788;DHT22;59598;48.112;16.280;2023-07-16T05:36:41;24.70;99.90
54788;DHT22;59598;48.112;16.280;2023-07-16T05:39:15;24.90;99.90
54788;DHT22;59598;48.112;16.280;2023-07-16T05:41:46;24.90;99.90
54788;DHT22;59598;48.112;16.280;2023-07-16T05:44:20;25.00;55.50
54788;DHT22;59598;48.112;16.280;2023-07-16T05:46:54;25.00;10.60
54788;DHT22;59598;48.112;16.280;2023-07-16T05:49:26;25.10;38.30
54788;DHT22;59598;48.112;16.280;2023-07-16T05:51:57;25.30;11.20
54788;DHT22;59598;48.112;16.280;2023-07-16T05:54:31;25.30;1.00
54788;DHT22;59598;48.112;16.280;2023-07-16T05:57:06;25.50;1.00
54788;DHT22;59598;48.112;16.280;2023-07-16T05:59:37;25.60;1.00
54788;DHT22;59598;48.112;16.280;2023-07-16T06:02:09;25.50;1.00
54788;DHT22;59598;48.112;16.280;2023-07-16T06:04:41;25.50;1.00
54788;DHT22;59598;48.112;16.280;2023-07-16T06:07:15;25.40;1.00
54788;DHT22;59598;48.112;16.280;2023-07-16T06:09:51;25.60;1.00
54788;DHT22;59598;48.112;16.280;2023-07-16T06:12:22;25.60;1.00
54788;DHT22;59598;48.112;16.280;2023-07-16T06:14:56;25.70;1.00
54788;DHT22;59598;48.112;16.280;2023-07-16T06:17:30;25.70;1.00
54788;DHT22;59598;48.112;16.280;2023-07-16T06:20:04;25.70;1.00
54788;DHT22;59598;48.112;16.280;2023-07-16T06:22:37;25.70;1.00
54788;DHT22;59598;48.112;16.280;2023-07-16T06:25:10;25.70;1.00
54788;DHT22;59598;48.112;16.280;2023-07-16T06:27:42;25.90;1.00
54788;DHT22;59598;48.112;16.280;2023-07-16T06:30:13;26.00;1.00
54788;DHT22;59598;48.112;16.280;2023-07-16T06:32:47;25.90;1.00
54788;DHT22;59598;48.112;16.280;2023-07-16T06:35:21;26.10;1.00
54788;DHT22;59598;48.112;16.280;2023-07-16T06:37:55;26.10;1.00
54788;DHT22;59598;48.112;16.280;2023-07-16T06:40:30;26.10;1.00
54788;DHT22;59598;48.112;16.280;2023-07-16T06:43:04;26.30;1.00
54788;DHT22;59598;48.112;16.280;2023-07-16T06:45:36;26.40;1.00
54788;DHT22;59598;48.112;16.280;2023-07-16T06:48:08;26.40;1.00
54788;DHT22;59598;48.112;16.280;2023-07-16T06:50:40;26.30;1.00
54788;DHT22;59598;48.112;16.280;2023-07-16T06:53:13;26.70;1.00
54788;DHT22;59598;48.112;16.280;2023-07-16T06:55:49;26.80;1.00
54788;DHT22;59598;48.112;16.280;2023-07-16T06:58:31;26.70;1.00
54788;DHT22;59598;48.112;16.280;2023-07-16T07:01:06;26.80;1.00
54788;DHT22;59598;48.112;16.280;2023-07-16T07:03:41;27.10;1.00
54788;DHT22;59598;48.112;16.280;2023-07-16T07:06:14;27.30;1.00
54788;DHT22;59598;48.112;16.280;2023-07-16T07:08:46;27.10;1.00
54788;DHT22;59598;48.112;16.280;2023-07-16T07:11:19;27.20;1.00
54788;DHT22;59598;48.112;16.280;2023-07-16T07:13:51;27.10;1.00
54788;DHT22;59598;48.112;16.280;2023-07-16T07:16:28;27.20;1.00
54788;DHT22;59598;48.112;16.280;2023-07-16T07:19:00;27.30;1.00
54788;DHT22;59598;48.112;16.280;2023-07-16T07:21:31;27.40;1.00
54788;DHT22;59598;48.112;16.280;2023-07-16T07:24:03;27.40;1.00
54788;DHT22;59598;48.112;16.280;2023-07-16T07:26:34;27.40;1.00
54788;DHT22;59598;48.112;16.280;2023-07-16T07:29:08;27.40;1.00
54788;DHT22;59598;48.112;16.280;2023-07-16T07:31:39;27.30;1.00
54788;DHT22;59598;48.112;16.280;2023-07-16T07:34:12;27.70;1.00
54788;DHT22;59598;48.112;16.280;2023-07-16T07:36:46;27.70;1.00
54788;DHT22;59598;48.112;16.280;2023-07-16T07:39:18;27.80;1.00
54788;DHT22;59598;48.112;16.280;2023-07-16T07:41:49;27.70;1.00
54788;DHT22;59598;48.112;16.280;2023-07-16T07:44:20;27.70;1.00
54788;DHT22;59598;48.112;16.280;2023-07-16T07:46:55;27.90;1.00
54788;DHT22;59598;48.112;16.280;2023-07-16T07:49:27;27.90;1.00
54788;DHT22;59598;48.112;16.280;2023-07-16T07:52:00;28.00;1.00
54788;DHT22;59598;48.112;16.280;2023-07-16T07:54:32;28.00;1.00
54788;DHT22;59598;48.112;16.280;2023-07-16T07:57:10;28.10;1.00
54788;DHT22;59598;48.112;16.280;2023-07-16T07:59:41;28.10;99.90
54788;DHT22;59598;48.112;16.280;2023-07-16T08:02:12;28.10;1.00
54788;DHT22;59598;48.112;16.280;2023-07-16T08:04:46;28.10;1.00
54788;DHT22;59598;48.112;16.280;2023-07-16T08:07:18;28.30;99.90
54788;DHT22;59598;48.112;16.280;2023-07-16T08:09:49;28.50;99.90
54788;DHT22;59598;48.112;16.280;2023-07-16T08:12:26;28.20;99.90
54788;DHT22;59598;48.112;16.280;2023-07-16T08:14:58;28.30;99.90
54788;DHT22;59598;48.112;16.280;2023-07-16T08:17:29;28.40;99.90
54788;DHT22;59598;48.112;16.280;2023-07-16T08:20:00;28.50;99.90
54788;DHT22;59598;48.112;16.280;2023-07-16T08:22:32;28.70;99.90
54788;DHT22;59598;48.112;16.280;2023-07-16T08:25:03;28.80;99.90
54788;DHT22;59598;48.112;16.280;2023-07-16T08:27:35;29.10;99.90
54788;DHT22;59598;48.112;16.280;2023-07-16T08:30:07;29.20;99.90
54788;DHT22;59598;48.112;16.280;2023-07-16T08:32:38;29.20;99.90
54788;DHT22;59598;48.112;16.280;2023-07-16T08:35:12;29.20;99.90
54788;DHT22;59598;48.112;16.280;2023-07-16T08:37:47;29.30;1.00
54788;DHT22;59598;48.112;16.280;2023-07-16T08:40:22;29.20;1.00
54788;DHT22;59598;48.112;16.280;2023-07-16T08:42:56;29.30;1.00
54788;DHT22;59598;48.112;16.280;2023-07-16T08:45:29;29.50;1.00
54788;DHT22;59598;48.112;16.280;2023-07-16T08:48:02;29.30;1.00
54788;DHT22;59598;48.112;16.280;2023-07-16T08:50:37;29.60;50.10
54788;DHT22;59598;48.112;16.280;2023-07-16T08:53:08;29.70;91.40
54788;DHT22;59598;48.112;16.280;2023-07-16T08:55:44;29.70;1.00
54788;DHT22;59598;48.112;16.280;2023-07-16T08:58:17;29.80;6.00
54788;DHT22;59598;48.112;16.280;2023-07-16T09:00:49;29.80;99.80
54788;DHT22;59598;48.112;16.280;2023-07-16T09:03:23;29.60;99.90
54788;DHT22;59598;48.112;16.280;2023-07-16T09:05:55;29.80;99.90
54788;DHT22;59598;48.112;16.280;2023-07-16T09:08:31;30.10;1.00
54788;DHT22;59598;48.112;16.280;2023-07-16T09:11:03;30.40;12.40
54788;DHT22;59598;48.112;16.280;2023-07-16T09:13:37;30.40;1.00
54788;DHT22;59598;48.112;16.280;2023-07-16T09:16:08;30.40;1.00
54788;DHT22;59598;48.112;16.280;2023-07-16T09:18:42;30.30;1.00
54788;DHT22;59598;48.112;16.280;2023-07-16T09:21:14;30.40;99.90
54788;DHT22;59598;48.112;16.280;2023-07-16T09:23:45;30.40;1.00
54788;DHT22;59598;48.112;16.280;2023-07-16T09:26:16;30.40;99.90
54788;DHT22;59598;48.112;16.280;2023-07-16T09:28:48;30.40;1.00
54788;DHT22;59598;48.112;16.280;2023-07-16T09:31:21;30.40;1.00
54788;DHT22;59598;48.112;16.280;2023-07-16T09:33:52;30.60;1.00
54788;DHT22;59598;48.112;16.280;2023-07-16T09:36:27;30.00;1.00
54788;DHT22;59598;48.112;16.280;2023-07-16T09:39:01;29.90;1.00
54788;DHT22;59598;48.112;16.280;2023-07-16T09:41:37;30.20;1.00
54788;DHT22;59598;48.112;16.280;2023-07-16T09:44:12;30.50;1.00
54788;DHT22;59598;48.112;16.280;2023-07-16T09:46:45;30.90;1.00
54788;DHT22;59598;48.112;16.280;2023-07-16T09:49:16;31.20;1.00
54788;DHT22;59598;48.112;16.280;2023-07-16T09:51:48;31.30;1.00
54788;DHT22;59598;48.112;16.280;2023-07-16T09:54:26;31.10;1.00
54788;DHT22;59598;48.112;16.280;2023-07-16T09:57:06;31.40;1.00
54788;DHT22;59598;48.112;16.280;2023-07-16T09:59:39;31.10;1.00
54788;DHT22;59598;48.112;16.280;2023-07-16T10:02:16;31.40;1.00
54788;DHT22;59598;48.112;16.280;2023-07-16T10:04:54;31.70;1.00
54788;DHT22;59598;48.112;16.280;2023-07-16T10:07:28;31.60;1.00
54788;DHT22;59598;48.112;16.280;2023-07-16T10:10:07;31.80;1.00
54788;DHT22;59598;48.112;16.280;2023-07-16T10:12:41;31.60;24.90
54788;DHT22;59598;48.112;16.280;2023-07-16T10:15:24;31.70;1.00
54788;DHT22;59598;48.112;16.280;2023-07-16T10:17:56;32.10;87.60
54788;DHT22;59598;48.112;16.280;2023-07-16T10:20:35;32.20;1.00
54788;DHT22;59598;48.112;16.280;2023-07-16T10:23:17;32.10;99.90
54788;DHT22;59598;48.112;16.280;2023-07-16T10:26:05;32.10;99.90
54788;DHT22;59598;48.112;16.280;2023-07-16T10:28:38;32.50;99.90
54788;DHT22;59598;48.112;16.280;2023-07-16T10:31:25;32.90;1.00
54788;DHT22;59598;48.112;16.280;2023-07-16T10:34:02;32.70;1.00
54788;DHT22;59598;48.112;16.280;2023-07-16T10:36:38;33.10;1.00
54788;DHT22;59598;48.112;16.280;2023-07-16T10:39:12;33.50;99.90
54788;DHT22;59598;48.112;16.280;2023-07-16T10:41:44;33.30;85.40
54788;DHT22;59598;48.112;16.280;2023-07-16T10:44:20;33.10;99.90
54788;DHT22;59598;48.112;16.280;2023-07-16T10:46:55;33.30;99.90
54788;DHT22;59598;48.112;16.280;2023-07-16T10:49:30;33.70;99.90
54788;DHT22;59598;48.112;16.280;2023-07-16T10:52:02;33.80;99.90
54788;DHT22;59598;48.112;16.280;2023-07-16T10:54:33;34.60;99.90
54788;DHT22;59598;48.112;16.280;2023-07-16T10:57:07;36.40;99.90
54788;DHT22;59598;48.112;16.280;2023-07-16T10:59:39;36.90;1.00
54788;DHT22;59598;48.112;16.280;2023-07-16T11:02:17;35.50;1.00
54788;DHT22;59598;48.112;16.280;2023-07-16T11:04:52;35.90;26.40
54788;DHT22;59598;48.112;16.280;2023-07-16T11:07:30;36.80;1.00
54788;DHT22;59598;48.112;16.280;2023-07-16T11:10:04;36.40;1.00
54788;DHT22;59598;48.112;16.280;2023-07-16T11:12:36;34.70;1.00
54788;DHT22;59598;48.112;16.280;2023-07-16T11:15:10;35.30;99.90
54788;DHT22;59598;48.112;16.280;2023-07-16T11:17:41;36.20;99.90
54788;DHT22;59598;48.112;16.280;2023-07-16T11:20:13;37.50;84.30
54788;DHT22;59598;48.112;16.280;2023-07-16T11:22:49;37.50;1.00
54788;DHT22;59598;48.112;16.280;2023-07-16T11:25:24;37.70;1.00
54788;DHT22;59598;48.112;16.280;2023-07-16T11:28:01;37.70;48.40
54788;DHT22;59598;48.112;16.280;2023-07-16T11:30:32;35.90;1.00
54788;DHT22;59598;48.112;16.280;2023-07-16T11:33:15;35.50;18.80
54788;DHT22;59598;48.112;16.280;2023-07-16T11:35:57;35.90;1.00
54788;DHT22;59598;48.112;16.280;2023-07-16T11:38:36;36.60;1.00
54788;DHT22;59598;48.112;16.280;2023-07-16T11:41:08;37.00;1.00
54788;DHT22;59598;48.112;16.280;2023-07-16T11:43:40;37.40;1.00
54788;DHT22;59598;48.112;16.280;2023-07-16T11:46:18;37.40;1.00
54788;DHT22;59598;48.112;16.280;2023-07-16T11:48:56;37.60;1.00
54788;DHT22;59598;48.112;16.280;2023-07-16T11:51:28;37.90;1.00
54788;DHT22;59598;48.112;16.280;2023-07-16T11:53:59;38.00;1.00
54788;DHT22;59598;48.112;16.280;2023-07-16T11:56:30;38.10;1.00
54788;DHT22;59598;48.112;16.280;2023-07-16T11:59:04;39.10;1.00
54788;DHT22;59598;48.112;16.280;2023-07-16T12:01:39;39.00;1.00
54788;DHT22;59598;48.112;16.280;2023-07-16T12:04:10;39.20;1.00
54788;DHT22;59598;48.112;16.280;2023-07-16T12:06:44;41.10;1.00
54788;DHT22;59598;48.112;16.280;2023-07-16T12:09:16;41.70;99.90
54788;DHT22;59598;48.112;16.280;2023-07-16T12:11:52;40.70;1.00
54788;DHT22;59598;48.112;16.280;2023-07-16T12:14:24;42.00;1.00
54788;DHT22;59598;48.112;16.280;2023-07-16T12:16:57;40.90;1.00
54788;DHT22;59598;48.112;16.280;2023-07-16T12:19:32;39.60;99.90
54788;DHT22;59598;48.112;16.280;2023-07-16T12:22:05;39.30;99.90
54788;DHT22;59598;48.112;16.280;2023-07-16T12:24:39;39.00;99.90
54788;DHT22;59598;48.112;16.280;2023-07-16T12:27:14;39.70;99.90
54788;DHT22;59598;48.112;16.280;2023-07-16T12:29:49;40.00;1.00
54788;DHT22;59598;48.112;16.280;2023-07-16T12:32:25;41.30;1.00
54788;DHT22;59598;48.112;16.280;2023-07-16T12:34:56;42.30;1.00
54788;DHT22;59598;48.112;16.280;2023-07-16T12:37:29;42.40;1.00
54788;DHT22;59598;48.112;16.280;2023-07-16T12:40:00;42.00;1.00
54788;DHT22;59598;48.112;16.280;2023-07-16T12:42:31;43.50;1.00
54788;DHT22;59598;48.112;16.280;2023-07-16T12:45:05;40.60;99.90
54788;DHT22;59598;48.112;16.280;2023-07-16T12:47:39;39.40;99.90
54788;DHT22;59598;48.112;16.280;2023-07-16T12:50:11;39.90;99.90
54788;DHT22;59598;48.112;16.280;2023-07-16T12:52:45;39.50;99.90
54788;DHT22;59598;48.112;16.280;2023-07-16T12:55:16;39.40;99.90
54788;DHT22;59598;48.112;16.280;2023-07-16T12:57:51;38.90;99.90
54788;DHT22;59598;48.112;16.280;2023-07-16T13:00:22;39.20;99.90
54788;DHT22;59598;48.112;16.280;2023-07-16T13:02:55;40.90;99.90
54788;DHT22;59598;48.112;16.280;2023-07-16T13:05:26;42.40;99.90
54788;DHT22;59598;48.112;16.280;2023-07-16T13:07:58;41.40;99.90
54788;DHT22;59598;48.112;16.280;2023-07-16T13:10:30;41.20;99.90
54788;DHT22;59598;48.112;16.280;2023-07-16T13:13:01;41.00;99.90
54788;DHT22;59598;48.112;16.280;2023-07-16T13:15:35;39.70;99.90
54788;DHT22;59598;48.112;16.280;2023-07-16T13:18:07;38.20;99.90
54788;DHT22;59598;48.112;16.280;2023-07-16T13:20:42;38.90;99.90
54788;DHT22;59598;48.112;16.280;2023-07-16T13:23:16;39.80;99.90
54788;DHT22;59598;48.112;16.280;2023-07-16T13:25:52;40.20;99.90
54788;DHT22;59598;48.112;16.280;2023-07-16T13:28:24;40.40;99.90
54788;DHT22;59598;48.112;16.280;2023-07-16T13:30:56;42.10;99.90
54788;DHT22;59598;48.112;16.280;2023-07-16T13:33:32;43.80;99.90
54788;DHT22;59598;48.112;16.280;2023-07-16T13:36:04;45.20;99.90
54788;DHT22;59598;48.112;16.280;2023-07-16T13:38:38;45.10;99.90
54788;DHT22;59598;48.112;16.280;2023-07-16T13:41:10;44.30;99.90
54788;DHT22;59598;48.112;16.280;2023-07-16T13:43:41;44.40;69.70
54788;DHT22;59598;48.112;16.280;2023-07-16T13:46:14;43.20;88.80
54788;DHT22;59598;48.112;16.280;2023-07-16T13:48:45;43.60;43.40
54788;DHT22;59598;48.112;16.280;2023-07-16T13:51:17;43.00;38.40
54788;DHT22;59598;48.112;16.280;2023-07-16T13:53:51;43.30;1.00
54788;DHT22;59598;48.112;16.280;2023-07-16T13:56:24;44.10;94.00
54788;DHT22;59598;48.112;16.280;2023-07-16T13:58:56;44.40;34.90
54788;DHT22;59598;48.112;16.280;2023-07-16T14:01:29;43.50;1.00
54788;DHT22;59598;48.112;16.280;2023-07-16T14:04:02;41.50;99.90
54788;DHT22;59598;48.112;16.280;2023-07-16T14:06:34;41.50;97.20
54788;DHT22;59598;48.112;16.280;2023-07-16T14:09:05;41.80;99.10
54788;DHT22;59598;48.112;16.280;2023-07-16T14:11:39;42.50;99.90
54788;DHT22;59598;48.112;16.280;2023-07-16T14:14:10;43.40;66.60
54788;DHT22;59598;48.112;16.280;2023-07-16T14:16:42;43.40;18.80
54788;DHT22;59598;48.112;16.280;2023-07-16T14:19:18;44.30;1.00
54788;DHT22;59598;48.112;16.280;2023-07-16T14:21:50;45.10;28.80
54788;DHT22;59598;48.112;16.280;2023-07-16T14:24:21;44.80;58.90
54788;DHT22;59598;48.112;16.280;2023-07-16T14:26:58;43.60;10.60
54788;DHT22;59598;48.112;16.280;2023-07-16T14:29:31;42.90;1.00
54788;DHT22;59598;48.112;16.280;2023-07-16T14:32:02;43.20;1.00
54788;DHT22;59598;48.112;16.280;2023-07-16T14:34:40;43.60;1.00
54788;DHT22;59598;48.112;16.280;2023-07-16T14:37:11;42.90;1.00
54788;DHT22;59598;48.112;16.280;2023-07-16T14:39:46;41.00;1.00
54788;DHT22;59598;48.112;16.280;2023-07-16T14:42:17;41.00;33.40
54788;DHT22;59598;48.112;16.280;2023-07-16T14:44:51;39.40;1.00
54788;DHT22;59598;48.112;16.280;2023-07-16T14:47:27;39.30;1.00
54788;DHT22;59598;48.112;16.280;2023-07-16T14:49:58;39.80;1.00
54788;DHT22;59598;48.112;16.280;2023-07-16T14:52:30;41.30;1.00
54788;DHT22;59598;48.112;16.280;2023-07-16T14:55:05;42.40;1.00
54788;DHT22;59598;48.112;16.280;2023-07-16T14:57:42;41.50;1.00
54788;DHT22;59598;48.112;16.280;2023-07-16T15:00:13;41.60;1.00
54788;DHT22;59598;48.112;16.280;2023-07-16T15:02:48;40.90;1.00
54788;DHT22;59598;48.112;16.280;2023-07-16T15:05:22;41.80;1.00
54788;DHT22;59598;48.112;16.280;2023-07-16T15:07:53;42.40;1.00
54788;DHT22;59598;48.112;16.280;2023-07-16T15:10:27;42.60;1.00
54788;DHT22;59598;48.112;16.280;2023-07-16T15:12:59;42.30;1.00
54788;DHT22;59598;48.112;16.280;2023-07-16T15:15:33;40.90;1.00
54788;DHT22;59598;48.112;16.280;2023-07-16T15:18:04;42.10;1.00
54788;DHT22;59598;48.112;16.280;2023-07-16T15:20:35;43.90;1.00
54788;DHT22;59598;48.112;16.280;2023-07-16T15:23:07;45.30;1.00
54788;DHT22;59598;48.112;16.280;2023-07-16T15:25:41;45.90;1.00
54788;DHT22;59598;48.112;16.280;2023-07-16T15:28:16;44.10;1.00
54788;DHT22;59598;48.112;16.280;2023-07-16T15:30:48;44.50;1.00
54788;DHT22;59598;48.112;16.280;2023-07-16T15:33:25;43.30;1.00
54788;DHT22;59598;48.112;16.280;2023-07-16T15:36:01;43.60;1.00
54788;DHT22;59598;48.112;16.280;2023-07-16T15:38:35;43.30;1.00
54788;DHT22;59598;48.112;16.280;2023-07-16T15:41:06;43.00;1.00
54788;DHT22;59598;48.112;16.280;2023-07-16T15:43:40;43.10;1.00
54788;DHT22;59598;48.112;16.280;2023-07-16T15:46:12;43.10;1.00
54788;DHT22;59598;48.112;16.280;2023-07-16T15:48:46;42.40;1.00
54788;DHT22;59598;48.112;16.280;2023-07-16T15:51:18;42.30;1.00
54788;DHT22;59598;48.112;16.280;2023-07-16T15:53:53;43.10;1.00
54788;DHT22;59598;48.112;16.280;2023-07-16T15:56:24;43.70;1.00
54788;DHT22;59598;48.112;16.280;2023-07-16T15:59:02;44.00;1.00
54788;DHT22;59598;48.112;16.280;2023-07-16T16:01:34;43.40;1.00
54788;DHT22;59598;48.112;16.280;2023-07-16T16:04:05;42.70;1.00
54788;DHT22;59598;48.112;16.280;2023-07-16T16:06:41;41.70;1.00
54788;DHT22;59598;48.112;16.280;2023-07-16T16:09:12;41.70;1.00
54788;DHT22;59598;48.112;16.280;2023-07-16T16:11:43;41.90;1.00